createdAt,value
2018-07-22T00:00:14.828Z,18.00
2018-07-22T00:02:43.512Z,18.01
2018-07-22T00:05:12.181Z,18.02
2018-07-22T00:07:40.868Z,18.05
2018-07-22T00:10:20.600Z,18.12
2018-07-22T00:12:49.321Z,18.18
2018-07-22T00:15:18.005Z,18.23
2018-07-22T00:17:46.667Z,18.28
2018-07-22T00:20:15.418Z,18.29
2018-07-22T00:22:44.207Z,18.29
2018-07-22T00:25:12.847Z,18.27
2018-07-22T00:27:41.510Z,18.25
2018-07-22T00:30:10.383Z,18.24
2018-07-22T00:32:40.305Z,18.25
2018-07-22T00:35:09.327Z,18.29
2018-07-22T00:37:38.441Z,18.35
2018-07-22T00:40:07.916Z,18.37
2018-07-22T00:42:36.847Z,18.37
2018-07-22T00:45:06.245Z,18.31
2018-07-22T00:47:34.937Z,18.28
2018-07-22T00:50:03.823Z,18.29
2018-07-22T00:52:32.496Z,18.35
2018-07-22T00:55:01.176Z,18.46
2018-07-22T00:57:29.872Z,18.52
2018-07-22T00:59:58.595Z,18.52
2018-07-22T01:02:27.320Z,18.47
2018-07-22T01:04:55.992Z,18.48
2018-07-22T01:07:24.727Z,18.54
2018-07-22T01:09:53.440Z,18.66
2018-07-22T01:12:22.372Z,18.78
2018-07-22T01:14:51.022Z,18.88
2018-07-22T01:17:19.743Z,18.98
2018-07-22T01:19:48.398Z,19.05
2018-07-22T01:22:17.258Z,19.10
2018-07-22T01:24:45.960Z,19.14
2018-07-22T01:27:14.689Z,19.18
2018-07-22T01:29:43.356Z,19.23
2018-07-22T01:32:12.031Z,19.28
2018-07-22T01:34:40.673Z,19.36
2018-07-22T01:37:09.355Z,19.41
2018-07-22T01:39:37.995Z,19.49
2018-07-22T01:42:06.689Z,19.52
2018-07-22T01:44:35.418Z,19.59
2018-07-22T01:47:04.108Z,19.63
2018-07-22T01:49:32.767Z,19.65
2018-07-22T01:52:01.409Z,19.69
2018-07-22T01:54:30.073Z,19.69
2018-07-22T01:56:58.725Z,19.70
2018-07-22T01:59:27.401Z,19.71
2018-07-22T02:01:56.078Z,19.71
2018-07-22T02:04:24.939Z,19.70
2018-07-22T02:06:53.600Z,19.69
2018-07-22T02:09:22.270Z,19.63
2018-07-22T02:11:50.932Z,19.61
2018-07-22T02:14:19.598Z,19.60
2018-07-22T02:16:48.240Z,19.60
2018-07-22T02:19:16.912Z,19.63
2018-07-22T02:21:45.556Z,19.63
2018-07-22T02:24:14.247Z,19.61
2018-07-22T02:26:42.891Z,19.60
2018-07-22T02:29:11.672Z,19.61
2018-07-22T02:31:40.353Z,19.62
2018-07-22T02:34:09.056Z,19.59
2018-07-22T02:36:37.732Z,19.56
2018-07-22T02:39:09.020Z,19.57
2018-07-22T02:41:37.696Z,19.50
2018-07-22T02:44:06.452Z,19.48
2018-07-22T02:46:35.182Z,19.41
2018-07-22T02:49:03.849Z,19.40
2018-07-22T02:51:32.506Z,19.39
2018-07-22T02:54:01.253Z,19.37
2018-07-22T02:56:29.909Z,19.40
2018-07-22T02:58:58.647Z,19.43
2018-07-22T03:01:27.308Z,19.46
2018-07-22T03:03:55.997Z,19.46
2018-07-22T03:06:24.635Z,19.43
2018-07-22T03:08:53.308Z,19.40
2018-07-22T03:11:21.956Z,19.40
2018-07-22T03:13:50.628Z,19.36
2018-07-22T03:16:19.319Z,19.35
2018-07-22T03:18:47.989Z,19.37
2018-07-22T03:21:16.638Z,19.35
2018-07-22T03:23:45.310Z,19.27
2018-07-22T03:26:13.963Z,19.23
2018-07-22T03:28:42.627Z,19.25
2018-07-22T03:31:11.321Z,19.24
2018-07-22T03:33:39.994Z,19.22
2018-07-22T03:36:08.640Z,19.23
2018-07-22T03:38:37.295Z,19.32
2018-07-22T03:41:06.035Z,19.40
2018-07-22T03:43:34.707Z,19.44
2018-07-22T03:46:03.381Z,19.46
2018-07-22T03:48:32.079Z,19.44
2018-07-22T03:51:00.731Z,19.41
2018-07-22T03:53:29.407Z,19.43
2018-07-22T03:55:58.244Z,19.46
2018-07-22T03:58:26.921Z,19.51
2018-07-22T04:00:55.572Z,19.50
2018-07-22T04:03:24.248Z,19.55
2018-07-22T04:05:52.916Z,19.58
2018-07-22T04:08:21.573Z,19.62
2018-07-22T04:10:50.240Z,19.64
2018-07-22T04:13:18.899Z,19.68
2018-07-22T04:15:47.567Z,19.67
2018-07-22T04:18:16.218Z,19.72
2018-07-22T04:20:44.904Z,19.74
2018-07-22T04:23:13.556Z,19.77
2018-07-22T04:25:42.214Z,19.82
2018-07-22T04:28:10.853Z,19.81
2018-07-22T04:30:39.532Z,19.81
2018-07-22T04:33:08.193Z,19.80
2018-07-22T04:35:36.860Z,19.80
2018-07-22T04:38:06.034Z,19.84
2018-07-22T04:40:34.701Z,19.89
2018-07-22T04:43:03.376Z,19.93
2018-07-22T04:45:32.090Z,19.98
2018-07-22T04:48:00.744Z,20.06
2018-07-22T04:50:29.404Z,20.11
2018-07-22T04:52:58.068Z,20.19
2018-07-22T04:55:26.769Z,20.28
2018-07-22T04:57:55.432Z,20.36
2018-07-22T05:00:24.132Z,20.50
2018-07-22T05:02:52.803Z,20.65
2018-07-22T05:05:21.509Z,20.79
2018-07-22T05:07:50.148Z,20.95
2018-07-22T05:10:18.844Z,21.12
2018-07-22T05:12:47.486Z,21.27
2018-07-22T05:15:16.142Z,21.36
2018-07-22T05:17:44.801Z,21.46
2018-07-22T05:20:13.483Z,21.58
2018-07-22T05:22:42.139Z,21.67
2018-07-22T05:25:10.804Z,21.80
2018-07-22T05:27:39.444Z,21.90
2018-07-22T05:30:08.101Z,22.12
2018-07-22T05:32:36.757Z,22.03
2018-07-22T05:35:05.474Z,21.86
2018-07-22T05:37:34.150Z,21.72
2018-07-22T05:40:02.851Z,21.66
2018-07-22T05:42:31.504Z,21.71
2018-07-22T05:45:00.211Z,21.78
2018-07-22T05:47:28.869Z,21.77
2018-07-22T05:49:57.532Z,21.85
2018-07-22T05:52:26.184Z,21.92
2018-07-22T05:54:54.911Z,21.91
2018-07-22T05:57:23.578Z,21.89
2018-07-22T05:59:52.215Z,22.01
2018-07-22T06:02:20.913Z,22.04
2018-07-22T06:04:49.817Z,22.06
2018-07-22T06:07:18.496Z,22.21
2018-07-22T06:09:47.174Z,22.33
2018-07-22T06:12:15.857Z,22.35
2018-07-22T06:14:44.521Z,22.39
2018-07-22T06:17:13.220Z,22.49
2018-07-22T06:19:41.893Z,22.52
2018-07-22T06:22:10.568Z,22.59
2018-07-22T06:24:39.245Z,22.59
2018-07-22T06:27:08.116Z,22.61
2018-07-22T06:29:36.762Z,22.72
2018-07-22T06:32:05.635Z,22.75
2018-07-22T06:34:34.323Z,22.91
2018-07-22T06:37:03.151Z,22.99
2018-07-22T06:39:31.792Z,22.97
2018-07-22T06:42:00.464Z,22.91
2018-07-22T06:44:29.121Z,22.96
2018-07-22T06:46:57.778Z,23.01
2018-07-22T06:49:26.427Z,22.88
2018-07-22T06:51:55.101Z,22.78
2018-07-22T06:54:23.773Z,22.74
2018-07-22T06:56:52.451Z,22.74
2018-07-22T06:59:21.153Z,22.72
2018-07-22T07:01:49.826Z,22.89
2018-07-22T07:04:18.511Z,23.29
2018-07-22T07:06:47.186Z,23.90
2018-07-22T07:09:15.832Z,23.99
2018-07-22T07:11:44.510Z,24.06
2018-07-22T07:14:13.165Z,24.03
2018-07-22T07:16:41.832Z,23.99
2018-07-22T07:19:10.483Z,24.05
2018-07-22T07:21:39.169Z,24.01
2018-07-22T07:24:07.919Z,23.99
2018-07-22T07:26:36.613Z,24.03
2018-07-22T07:29:05.380Z,24.12
2018-07-22T07:31:34.048Z,24.15
2018-07-22T07:34:02.723Z,24.32
2018-07-22T07:36:31.418Z,24.54
2018-07-22T07:39:00.063Z,24.54
2018-07-22T07:41:28.744Z,24.66
2018-07-22T07:43:57.387Z,24.88
2018-07-22T07:46:26.045Z,25.16
2018-07-22T07:48:54.689Z,25.47
2018-07-22T07:51:23.358Z,25.58
2018-07-22T07:53:52.114Z,25.72
2018-07-22T07:56:20.773Z,25.84
2018-07-22T07:58:49.409Z,25.71
2018-07-22T08:01:18.152Z,25.87
2018-07-22T08:03:46.822Z,25.70
2018-07-22T08:06:15.491Z,25.65
2018-07-22T08:08:44.138Z,25.81
2018-07-22T08:11:12.783Z,26.06
2018-07-22T08:13:41.465Z,26.26
2018-07-22T08:16:10.108Z,26.54
2018-07-22T08:18:38.840Z,26.67
2018-07-22T08:21:07.513Z,26.74
2018-07-22T08:23:36.208Z,26.75
2018-07-22T08:26:05.019Z,26.85
2018-07-22T08:28:44.636Z,27.01
2018-07-22T08:31:13.290Z,27.27
2018-07-22T08:33:41.972Z,27.43
2018-07-22T08:36:10.608Z,27.21
2018-07-22T08:38:39.287Z,26.83
2018-07-22T08:41:07.983Z,26.64
2018-07-22T08:43:36.655Z,26.71
2018-07-22T08:46:05.332Z,27.00
2018-07-22T08:48:34.011Z,27.19
2018-07-22T08:51:02.677Z,27.19
2018-07-22T08:53:31.375Z,27.13
2018-07-22T08:56:00.023Z,27.28
2018-07-22T08:58:28.743Z,27.55
2018-07-22T09:00:57.386Z,27.80
2018-07-22T09:03:26.076Z,27.84
2018-07-22T09:05:54.744Z,27.84
2018-07-22T09:08:23.411Z,28.00
2018-07-22T09:10:52.055Z,27.92
2018-07-22T09:13:20.712Z,27.95
2018-07-22T09:15:49.361Z,28.13
2018-07-22T09:18:18.017Z,28.22
2018-07-22T09:20:46.684Z,28.38
2018-07-22T09:23:15.344Z,28.45
2018-07-22T09:25:43.997Z,28.64
2018-07-22T09:28:12.673Z,28.76
2018-07-22T09:30:41.317Z,28.99
2018-07-22T09:33:09.989Z,29.36
2018-07-22T09:35:38.640Z,29.42
2018-07-22T09:38:07.308Z,29.50
2018-07-22T09:40:35.954Z,29.68
2018-07-22T09:43:04.663Z,30.02
2018-07-22T09:45:33.295Z,30.40
2018-07-22T09:48:01.994Z,30.60
2018-07-22T09:50:30.658Z,30.45
2018-07-22T09:52:59.364Z,30.62
2018-07-22T09:55:28.035Z,30.30
2018-07-22T09:57:56.712Z,30.38
2018-07-22T10:00:30.647Z,30.09
2018-07-22T10:02:59.315Z,29.61
2018-07-22T10:05:27.983Z,29.82
2018-07-22T10:07:56.647Z,29.85
2018-07-22T10:10:25.297Z,30.06
2018-07-22T10:12:53.957Z,30.10
2018-07-22T10:15:22.590Z,30.24
2018-07-22T10:17:51.253Z,30.42
2018-07-22T10:20:19.897Z,30.78
2018-07-22T10:22:48.581Z,30.81
2018-07-22T10:25:17.243Z,30.90
2018-07-22T10:27:45.902Z,31.00
2018-07-22T10:30:14.582Z,31.12
2018-07-22T10:32:43.238Z,31.32
2018-07-22T10:35:11.931Z,30.51
2018-07-22T10:37:40.611Z,29.97
2018-07-22T10:40:09.277Z,29.93
2018-07-22T10:42:37.957Z,30.30
2018-07-22T10:45:06.626Z,30.75
2018-07-22T10:47:35.272Z,31.01
2018-07-22T10:50:04.046Z,30.90
2018-07-22T10:52:32.714Z,30.74
2018-07-22T10:55:01.395Z,30.96
2018-07-22T10:57:30.057Z,31.00
2018-07-22T10:59:58.708Z,30.88
2018-07-22T11:02:27.426Z,30.99
2018-07-22T11:04:56.154Z,31.08
2018-07-22T11:07:24.812Z,31.48
2018-07-22T11:09:53.872Z,31.58
2018-07-22T11:12:22.563Z,31.70
2018-07-22T11:14:51.408Z,31.49
2018-07-22T11:17:19.965Z,30.84
2018-07-22T11:19:48.642Z,30.93
2018-07-22T11:22:17.274Z,30.78
2018-07-22T11:24:45.966Z,30.83
2018-07-22T11:27:14.609Z,30.59
2018-07-22T11:29:43.251Z,30.48
2018-07-22T11:32:11.929Z,30.43
2018-07-22T11:34:40.704Z,30.26
2018-07-22T11:37:09.376Z,30.51
2018-07-22T11:39:38.036Z,30.82
2018-07-22T11:42:06.742Z,31.13
2018-07-22T11:44:35.408Z,31.08
2018-07-22T11:47:04.059Z,30.82
2018-07-22T11:49:32.719Z,30.88
2018-07-22T11:52:01.357Z,30.82
2018-07-22T11:54:30.028Z,30.78
2018-07-22T11:56:58.685Z,31.15
2018-07-22T11:59:27.348Z,31.27
2018-07-22T12:01:56.060Z,31.26
2018-07-22T12:04:24.744Z,30.43
2018-07-22T12:06:53.395Z,29.87
2018-07-22T12:09:22.905Z,30.24
2018-07-22T12:11:51.549Z,30.80
2018-07-22T12:14:20.199Z,30.97
2018-07-22T12:16:48.848Z,30.54
2018-07-22T12:19:17.500Z,29.71
2018-07-22T12:21:46.143Z,30.01
2018-07-22T12:24:14.805Z,30.42
2018-07-22T12:26:43.460Z,30.49
2018-07-22T12:29:12.153Z,31.10
2018-07-22T12:31:40.828Z,31.50
2018-07-22T12:34:09.507Z,31.45
2018-07-22T12:36:38.144Z,31.61
2018-07-22T12:39:10.060Z,31.28
2018-07-22T12:41:38.717Z,30.62
2018-07-22T12:44:07.373Z,31.19
2018-07-22T12:46:36.332Z,31.72
2018-07-22T12:49:05.121Z,32.03
2018-07-22T12:51:33.896Z,31.78
2018-07-22T12:54:02.549Z,31.35
2018-07-22T12:56:31.214Z,31.39
2018-07-22T12:59:00.345Z,30.58
2018-07-22T13:01:29.387Z,30.40
2018-07-22T13:03:58.047Z,29.92
2018-07-22T13:06:26.722Z,29.46
2018-07-22T13:08:55.389Z,29.77
2018-07-22T13:11:24.056Z,30.76
2018-07-22T13:13:52.690Z,31.03
2018-07-22T13:16:21.347Z,31.36
2018-07-22T13:18:49.999Z,31.52
2018-07-22T13:21:18.680Z,31.41
2018-07-22T13:23:47.345Z,30.80
2018-07-22T13:26:16.019Z,30.98
2018-07-22T13:28:44.678Z,31.56
2018-07-22T13:31:13.339Z,32.00
2018-07-22T13:33:42.001Z,32.02
2018-07-22T13:36:10.663Z,32.17
2018-07-22T13:38:39.311Z,31.69
2018-07-22T13:41:07.970Z,31.09
2018-07-22T13:43:36.594Z,30.44
2018-07-22T13:46:05.317Z,30.06
2018-07-22T13:48:33.948Z,30.49
2018-07-22T13:51:02.636Z,31.00
2018-07-22T13:53:31.268Z,30.65
2018-07-22T13:55:59.933Z,30.38
2018-07-22T13:58:28.582Z,30.27
2018-07-22T14:00:57.253Z,30.39
2018-07-22T14:03:25.903Z,29.89
2018-07-22T14:05:54.551Z,29.51
2018-07-22T14:08:23.209Z,29.24
2018-07-22T14:10:51.862Z,29.64
2018-07-22T14:13:20.504Z,29.58
2018-07-22T14:15:49.172Z,29.58
2018-07-22T14:18:17.829Z,29.69
2018-07-22T14:20:46.481Z,29.80
2018-07-22T14:23:15.120Z,30.50
2018-07-22T14:25:43.793Z,30.98
2018-07-22T14:28:12.452Z,31.32
2018-07-22T14:30:41.166Z,31.35
2018-07-22T14:33:09.806Z,31.51
2018-07-22T14:35:38.469Z,31.64
2018-07-22T14:38:07.325Z,31.76
2018-07-22T14:40:36.015Z,31.53
2018-07-22T14:43:04.669Z,31.61
2018-07-22T14:45:33.339Z,31.38
2018-07-22T14:48:01.979Z,31.33
2018-07-22T14:50:30.630Z,31.11
2018-07-22T14:52:59.285Z,30.59
2018-07-22T14:55:27.921Z,30.07
2018-07-22T14:57:56.588Z,29.83
2018-07-22T15:00:25.293Z,30.05
2018-07-22T15:02:53.939Z,30.42
2018-07-22T15:05:22.596Z,30.82
2018-07-22T15:07:51.253Z,31.11
2018-07-22T15:10:19.984Z,31.22
2018-07-22T15:12:48.642Z,30.41
2018-07-22T15:15:17.280Z,29.56
2018-07-22T15:17:45.958Z,29.19
2018-07-22T15:20:14.596Z,29.03
2018-07-22T15:22:43.279Z,28.97
2018-07-22T15:25:11.930Z,28.84
2018-07-22T15:27:40.623Z,28.78
2018-07-22T15:30:09.302Z,28.75
2018-07-22T15:32:37.979Z,28.78
2018-07-22T15:35:06.688Z,28.82
2018-07-22T15:37:35.328Z,28.94
2018-07-22T15:40:04.245Z,28.98
2018-07-22T15:42:32.914Z,28.97
2018-07-22T15:45:01.546Z,29.15
2018-07-22T15:47:30.207Z,29.37
2018-07-22T15:49:58.838Z,29.38
2018-07-22T15:52:27.487Z,29.93
2018-07-22T15:54:56.153Z,30.55
2018-07-22T15:57:24.807Z,30.78
2018-07-22T15:59:53.439Z,30.66
2018-07-22T16:02:22.113Z,30.73
2018-07-22T16:04:50.791Z,30.44
2018-07-22T16:07:19.468Z,30.55
2018-07-22T16:09:48.101Z,30.30
2018-07-22T16:12:16.803Z,29.91
2018-07-22T16:14:45.448Z,29.81
2018-07-22T16:17:14.114Z,29.87
2018-07-22T16:19:42.764Z,30.03
2018-07-22T16:22:11.534Z,30.13
2018-07-22T16:24:40.172Z,29.83
2018-07-22T16:27:08.825Z,29.88
2018-07-22T16:29:37.542Z,30.06
2018-07-22T16:32:06.238Z,30.16
2018-07-22T16:34:34.883Z,29.90
2018-07-22T16:37:03.560Z,29.86
2018-07-22T16:39:32.217Z,29.78
2018-07-22T16:42:00.881Z,29.78
2018-07-22T16:44:29.528Z,29.83
2018-07-22T16:46:58.209Z,29.93
2018-07-22T16:49:26.842Z,29.61
2018-07-22T16:51:55.503Z,29.51
2018-07-22T16:54:24.150Z,29.27
2018-07-22T16:56:52.796Z,28.98
2018-07-22T16:59:21.460Z,28.94
2018-07-22T17:01:50.113Z,28.94
2018-07-22T17:04:18.797Z,28.91
2018-07-22T17:06:47.436Z,28.97
2018-07-22T17:09:16.083Z,28.80
2018-07-22T17:11:44.734Z,28.59
2018-07-22T17:14:13.400Z,28.30
2018-07-22T17:16:42.067Z,28.17
2018-07-22T17:19:10.733Z,28.13
2018-07-22T17:21:39.399Z,28.12
2018-07-22T17:24:08.182Z,27.95
2018-07-22T17:26:36.826Z,27.93
2018-07-22T17:29:05.534Z,28.04
2018-07-22T17:31:34.166Z,27.96
2018-07-22T17:34:02.900Z,27.67
2018-07-22T17:36:31.576Z,27.60
2018-07-22T17:39:00.251Z,27.64
2018-07-22T17:41:28.933Z,27.44
2018-07-22T17:43:57.592Z,27.14
2018-07-22T17:46:26.274Z,26.99
2018-07-22T17:48:54.937Z,27.02
2018-07-22T17:51:23.575Z,27.11
2018-07-22T17:53:52.264Z,27.52
2018-07-22T17:56:20.896Z,27.68
2018-07-22T17:58:49.574Z,27.64
2018-07-22T18:01:18.248Z,27.51
2018-07-22T18:03:46.932Z,27.27
2018-07-22T18:06:15.592Z,27.21
2018-07-22T18:08:44.240Z,27.03
2018-07-22T18:11:12.894Z,27.01
2018-07-22T18:13:41.557Z,27.09
2018-07-22T18:16:10.215Z,26.92
2018-07-22T18:18:38.875Z,26.72
2018-07-22T18:21:07.649Z,26.55
2018-07-22T18:23:36.278Z,26.66
2018-07-22T18:26:05.001Z,26.53
2018-07-22T18:28:33.668Z,26.50
2018-07-22T18:31:02.357Z,26.27
2018-07-22T18:33:31.029Z,25.85
2018-07-22T18:35:59.687Z,25.42
2018-07-22T18:38:28.348Z,25.06
2018-07-22T18:40:57.001Z,24.89
2018-07-22T18:43:25.665Z,24.92
2018-07-22T18:45:54.303Z,24.90
2018-07-22T18:48:23.063Z,24.83
2018-07-22T18:50:51.681Z,24.73
2018-07-22T18:53:20.460Z,24.65
2018-07-22T18:55:49.095Z,24.61
2018-07-22T18:58:17.732Z,24.58
2018-07-22T19:00:46.390Z,24.60
2018-07-22T19:03:15.052Z,24.57
2018-07-22T19:05:43.745Z,24.55
2018-07-22T19:08:12.383Z,24.52
2018-07-22T19:10:41.036Z,24.41
2018-07-22T19:13:09.697Z,24.17
2018-07-22T19:15:38.394Z,24.05
2018-07-22T19:18:07.107Z,23.81
2018-07-22T19:20:35.768Z,23.62
2018-07-22T19:23:04.477Z,23.46
2018-07-22T19:25:33.140Z,23.29
2018-07-22T19:28:01.762Z,23.16
2018-07-22T19:30:30.464Z,23.06
2018-07-22T19:32:59.127Z,22.97
2018-07-22T19:35:27.774Z,22.93
2018-07-22T19:37:56.446Z,22.80
2018-07-22T19:40:25.152Z,22.68
2018-07-22T19:42:53.793Z,22.51
2018-07-22T19:45:22.465Z,22.35
2018-07-22T19:47:51.084Z,22.19
2018-07-22T19:50:19.745Z,22.07
2018-07-22T19:52:48.453Z,21.93
2018-07-22T19:55:17.120Z,21.72
2018-07-22T19:57:45.784Z,21.62
2018-07-22T20:00:14.526Z,21.52
2018-07-22T20:02:43.220Z,21.42
2018-07-22T20:05:11.941Z,21.30
2018-07-22T20:07:40.597Z,21.24
2018-07-22T20:10:09.259Z,21.20
2018-07-22T20:12:37.943Z,21.11
2018-07-22T20:15:06.629Z,21.13
2018-07-22T20:17:35.291Z,21.12
2018-07-22T20:20:04.084Z,21.07
2018-07-22T20:22:32.718Z,20.95
2018-07-22T20:25:01.374Z,20.86
2018-07-22T20:27:30.020Z,20.76
2018-07-22T20:29:58.687Z,20.65
2018-07-22T20:32:27.379Z,20.54
2018-07-22T20:34:56.048Z,20.53
2018-07-22T20:37:24.934Z,20.49
2018-07-22T20:39:53.610Z,20.43
2018-07-22T20:42:22.276Z,20.33
2018-07-22T20:44:50.956Z,20.23
2018-07-22T20:47:19.703Z,20.15
2018-07-22T20:49:48.360Z,20.05
2018-07-22T20:52:17.005Z,19.94
2018-07-22T20:54:45.700Z,19.80
2018-07-22T20:57:14.337Z,19.68
2018-07-22T20:59:43.002Z,19.55
2018-07-22T21:02:11.663Z,19.45
2018-07-22T21:04:40.341Z,19.34
2018-07-22T21:07:09.040Z,19.26
2018-07-22T21:09:37.679Z,19.21
2018-07-22T21:12:43.915Z,19.15
2018-07-22T21:15:12.956Z,19.09
2018-07-22T21:17:41.715Z,19.09
2018-07-22T21:20:10.385Z,19.08
2018-07-22T21:22:39.368Z,19.06
2018-07-22T21:25:08.040Z,19.04
2018-07-22T21:27:36.701Z,19.04
2018-07-22T21:30:06.395Z,19.04
2018-07-22T21:32:35.054Z,19.06
2018-07-22T21:35:03.772Z,19.02
2018-07-22T21:37:32.404Z,18.92
2018-07-22T21:40:01.118Z,18.80
2018-07-22T21:42:30.048Z,18.68
2018-07-22T21:44:58.691Z,18.58
2018-07-22T21:47:27.351Z,18.53
2018-07-22T21:49:56.001Z,18.50
2018-07-22T21:52:24.909Z,18.46
2018-07-22T21:54:53.564Z,18.34
2018-07-22T21:57:22.287Z,18.23
2018-07-22T21:59:50.928Z,18.20
2018-07-22T22:02:19.612Z,18.24
2018-07-22T22:04:48.298Z,18.24
2018-07-22T22:07:16.991Z,18.14
2018-07-22T22:09:45.643Z,18.01
2018-07-22T22:12:14.316Z,17.91
2018-07-22T22:14:42.953Z,17.79
2018-07-22T22:17:11.666Z,17.70
2018-07-22T22:19:40.797Z,17.59
2018-07-22T22:22:09.479Z,17.51
2018-07-22T22:24:38.172Z,17.48
2018-07-22T22:27:06.827Z,17.44
2018-07-22T22:29:35.474Z,17.28
2018-07-22T22:32:04.160Z,17.14
2018-07-22T22:34:32.805Z,17.00
2018-07-22T22:37:01.471Z,16.80
2018-07-22T22:39:30.108Z,16.62
2018-07-22T22:41:58.776Z,16.41
2018-07-22T22:44:27.408Z,16.24
2018-07-22T22:46:56.076Z,16.23
2018-07-22T22:49:24.727Z,16.39
2018-07-22T22:51:53.410Z,16.56
2018-07-22T22:54:22.062Z,16.66
2018-07-22T22:56:50.754Z,16.69
2018-07-22T22:59:22.512Z,16.72
2018-07-22T23:01:51.344Z,16.75
2018-07-22T23:04:20.018Z,16.76
2018-07-22T23:06:48.684Z,16.80
2018-07-22T23:09:17.404Z,16.82
2018-07-22T23:11:46.063Z,16.77
2018-07-22T23:14:14.743Z,16.71
2018-07-22T23:16:43.417Z,16.62
2018-07-22T23:19:12.045Z,16.55
2018-07-22T23:21:40.692Z,16.49
2018-07-22T23:24:09.331Z,16.44
2018-07-22T23:26:37.983Z,16.42
2018-07-22T23:29:06.636Z,16.42
2018-07-22T23:31:35.288Z,16.42
2018-07-22T23:34:03.922Z,16.39
2018-07-22T23:36:32.593Z,16.36
2018-07-22T23:39:01.251Z,16.31
2018-07-22T23:41:29.927Z,16.22
2018-07-22T23:43:58.580Z,16.21
2018-07-22T23:46:27.222Z,16.20
2018-07-22T23:48:55.878Z,16.18
2018-07-22T23:51:24.514Z,16.17
2018-07-22T23:53:53.167Z,16.14
2018-07-22T23:56:21.802Z,16.12
2018-07-22T23:58:50.455Z,16.11
